CheckWX is a tool to help pilots better visualize weather data.  It is not intended as a substitute for an official pre-flight weather briefing.

07:57:15 UTC

KADW TAF
Joint Base Andrews Airport
Camp Springs, Maryland, USA
TAF KADW 050900Z 0509/0615 21005KT 9999 FEW050 QNH3001INS BECMG 0519/0520 22008KT 9999 FEW035 BKN050 QNH2998INS BECMG 0607/0608 30005KT 9999 FEW050 BKN070 QNH2998INS BECMG 0609/0610 35005KT 9999 SCT050 BKN070 QNH3001INS BECMG 0612/0613 02010G15KT 9999 FEW050 SCT120 QNH3007INS TX19/0520Z TN07/0509Z

Apr-5@
09:00 UTC

Apr-5 @ 09:00 UTC

Apr-5@
19:00 UTC

Apr-5 @ 19:00 UTC

TAF KADW 050900Z 0509/0615 21005KT 9999 FEW050 QNH3001INS

Expired

Wind
  • 210° at 5 KTS
Cloud Levels
  • Few at 5,000' AGL

Apr-5@
19:00 UTC

Apr-5 @ 19:00 UTC

Apr-6@
07:00 UTC

Apr-6 @ 07:00 UTC

BECMG 0519/0520 22008KT 9999 FEW035 BKN050 QNH2998INS

Expired

Wind
  • 220° at 8 KTS
Cloud Levels
  • Few at 3,500' AGL
  • Broken at 5,000' AGL

Apr-6@
07:00 UTC

Apr-6 @ 07:00 UTC

Apr-6@
09:00 UTC

Apr-6 @ 09:00 UTC

BECMG 0607/0608 30005KT 9999 FEW050 BKN070 QNH2998INS

Becoming

Becoming Conditions expected by Mon, Apr 6, 2020 @ 08:00 UTC

Wind
  • 300° at 5 KTS
Cloud Levels
  • Few at 5,000' AGL
  • Broken at 7,000' AGL

Apr-6@
09:00 UTC

Apr-6 @ 09:00 UTC

Apr-6@
12:00 UTC

Apr-6 @ 12:00 UTC

BECMG 0609/0610 35005KT 9999 SCT050 BKN070 QNH3001INS

Becoming

Becoming Conditions expected by Mon, Apr 6, 2020 @ 10:00 UTC

Wind
  • 350° at 5 KTS
Cloud Levels
  • Scattered at 5,000' AGL
  • Broken at 7,000' AGL

Apr-6@
12:00 UTC

Apr-6 @ 12:00 UTC

Apr-6@
15:00 UTC

Apr-6 @ 15:00 UTC

BECMG 0612/0613 02010G15KT 9999 FEW050 SCT120 QNH3007INS TX19/0520Z TN07/0509Z

Becoming

Becoming Conditions expected by Mon, Apr 6, 2020 @ 13:00 UTC

Wind
  • 020° at 10 KTS
  • {Gusting to 15 KTS
Cloud Levels
  • Few at 5,000' AGL
  • Scattered at 12,000' AGL